createdAt,value
2018-03-03T00:01:09.698Z,20.90
2018-03-03T00:03:45.130Z,16.85
2018-03-03T00:06:20.316Z,26.70
2018-03-03T00:08:56.213Z,23.53
2018-03-03T00:11:31.350Z,17.37
2018-03-03T00:14:11.594Z,21.13
2018-03-03T00:16:47.666Z,15.80
2018-03-03T00:19:22.932Z,19.73
2018-03-03T00:21:57.908Z,18.40
2018-03-03T00:24:32.791Z,15.80
2018-03-03T00:27:08.698Z,20.75
2018-03-03T00:29:43.376Z,24.90
2018-03-03T00:32:18.346Z,15.30
2018-03-03T00:34:53.647Z,13.98
2018-03-03T00:37:28.797Z,19.37
2018-03-03T00:40:04.179Z,24.05
2018-03-03T00:42:39.251Z,12.32
2018-03-03T00:45:14.358Z,13.27
2018-03-03T00:47:49.250Z,14.25
2018-03-03T00:50:24.397Z,10.37
2018-03-03T00:52:59.401Z,15.95
2018-03-03T00:55:34.491Z,13.03
2018-03-03T00:58:09.368Z,25.73
2018-03-03T01:00:44.139Z,25.07
2018-03-03T01:03:18.718Z,18.50
2018-03-03T01:05:53.815Z,25.30
2018-03-03T01:08:28.834Z,17.97
2018-03-03T01:11:04.683Z,10.63
2018-03-03T01:13:39.579Z,17.10
2018-03-03T01:16:14.692Z,20.03
2018-03-03T01:18:49.922Z,21.33
2018-03-03T01:21:25.243Z,22.40
2018-03-03T01:24:00.566Z,26.73
2018-03-03T01:26:35.570Z,23.42
2018-03-03T01:29:10.678Z,12.50
2018-03-03T01:31:45.810Z,12.57
2018-03-03T01:34:20.878Z,24.13
2018-03-03T01:36:56.133Z,24.63
2018-03-03T01:39:31.703Z,18.05
2018-03-03T01:42:06.631Z,19.25
2018-03-03T01:44:41.707Z,21.53
2018-03-03T01:47:16.675Z,9.00
2018-03-03T01:49:51.691Z,18.62
2018-03-03T01:52:26.249Z,17.83
2018-03-03T01:55:01.822Z,13.00
2018-03-03T01:57:37.454Z,21.90
2018-03-03T02:00:12.087Z,17.23
2018-03-03T02:02:47.599Z,25.58
2018-03-03T02:05:23.070Z,21.43
2018-03-03T02:07:58.291Z,24.42
2018-03-03T02:10:33.834Z,21.47
2018-03-03T02:13:08.904Z,19.33
2018-03-03T02:15:44.075Z,15.57
2018-03-03T02:18:19.260Z,22.43
2018-03-03T02:20:54.918Z,18.35
2018-03-03T02:23:29.907Z,11.93
2018-03-03T02:26:04.768Z,14.00
2018-03-03T02:28:39.910Z,31.20
2018-03-03T02:31:14.917Z,17.37
2018-03-03T02:33:50.244Z,17.93
2018-03-03T02:36:25.628Z,15.20
2018-03-03T02:39:00.910Z,12.13
2018-03-03T02:41:35.851Z,34.23
2018-03-03T02:44:10.963Z,23.60
2018-03-03T02:46:46.135Z,14.40
2018-03-03T02:49:21.099Z,14.53
2018-03-03T02:51:56.339Z,17.07
2018-03-03T02:54:31.334Z,16.47
2018-03-03T02:57:05.950Z,6.72
2018-03-03T02:59:40.835Z,12.47
2018-03-03T03:02:16.072Z,14.60
2018-03-03T03:04:51.259Z,19.70
2018-03-03T03:07:26.110Z,16.73
2018-03-03T03:10:01.190Z,23.47
2018-03-03T03:12:36.230Z,28.63
2018-03-03T03:15:11.259Z,21.67
2018-03-03T03:17:46.377Z,17.90
2018-03-03T03:20:20.878Z,18.40
2018-03-03T03:22:56.537Z,17.37
2018-03-03T03:25:31.064Z,10.80
2018-03-03T03:28:06.123Z,23.50
2018-03-03T03:30:40.907Z,15.60
2018-03-03T03:33:16.750Z,18.17
2018-03-03T03:35:52.127Z,19.50
2018-03-03T03:38:26.930Z,12.33
2018-03-03T03:41:02.427Z,19.07
2018-03-03T03:43:37.244Z,31.77
2018-03-03T03:46:12.270Z,29.30
2018-03-03T03:48:48.329Z,31.20
2018-03-03T03:51:23.049Z,29.60
2018-03-03T03:53:57.966Z,7.33
2018-03-03T03:56:33.210Z,17.90
2018-03-03T03:59:08.133Z,23.63
2018-03-03T04:01:43.365Z,21.70
2018-03-03T04:04:18.422Z,17.63
2018-03-03T04:06:53.465Z,12.70
2018-03-03T04:09:28.910Z,15.63
2018-03-03T04:12:03.982Z,19.57
2018-03-03T04:14:39.046Z,31.30
2018-03-03T04:17:13.998Z,15.03
2018-03-03T04:19:49.045Z,26.77
2018-03-03T04:22:23.683Z,35.50
2018-03-03T04:24:58.869Z,20.48
2018-03-03T04:27:33.701Z,14.30
2018-03-03T04:30:09.029Z,16.50
2018-03-03T04:32:43.898Z,13.23
2018-03-03T04:35:18.907Z,17.70
2018-03-03T04:37:53.457Z,22.33
2018-03-03T04:40:28.586Z,18.93
2018-03-03T04:43:03.225Z,29.80
2018-03-03T04:45:37.566Z,15.47
2018-03-03T04:48:12.827Z,10.07
2018-03-03T04:50:48.278Z,23.42
2018-03-03T04:53:23.224Z,19.07
2018-03-03T04:55:57.934Z,14.50
2018-03-03T04:58:33.024Z,16.03
2018-03-03T05:01:08.430Z,11.07
2018-03-03T05:04:02.856Z,28.80
2018-03-03T05:09:36.349Z,11.07
2018-03-03T05:12:11.358Z,15.20
2018-03-03T05:18:08.897Z,20.08
2018-03-03T05:20:49.705Z,13.67
2018-03-03T05:23:29.065Z,17.60
2018-03-03T05:26:09.099Z,20.95
2018-03-03T05:31:52.127Z,19.90
2018-03-03T05:37:37.816Z,27.08
2018-03-03T05:43:14.890Z,23.00
2018-03-03T05:45:54.962Z,23.80
2018-03-03T05:48:30.314Z,9.10
2018-03-03T05:54:11.130Z,15.90
2018-03-03T05:56:52.553Z,15.73
2018-03-03T05:59:28.743Z,23.73
2018-03-03T06:02:13.136Z,19.07
2018-03-03T06:08:06.670Z,23.17
2018-03-03T06:10:41.574Z,19.00
2018-03-03T06:13:16.554Z,13.20
2018-03-03T06:15:51.482Z,18.17
2018-03-03T06:18:26.473Z,20.03
2018-03-03T06:21:01.630Z,29.13
2018-03-03T06:23:36.682Z,20.90
2018-03-03T06:26:11.446Z,16.23
2018-03-03T06:28:46.703Z,19.37
2018-03-03T06:31:21.405Z,16.10
2018-03-03T06:33:56.727Z,14.63
2018-03-03T06:36:31.586Z,28.30
2018-03-03T06:39:06.482Z,25.63
2018-03-03T06:41:41.643Z,22.27
2018-03-03T06:44:16.490Z,23.97
2018-03-03T06:46:51.669Z,24.40
2018-03-03T06:49:26.492Z,14.30
2018-03-03T06:52:01.427Z,21.57
2018-03-03T06:54:36.569Z,15.43
2018-03-03T06:57:11.473Z,22.40
2018-03-03T06:59:46.474Z,10.73
2018-03-03T07:02:21.534Z,17.20
2018-03-03T07:04:56.381Z,12.45
2018-03-03T07:07:31.550Z,22.73
2018-03-03T07:10:06.662Z,19.25
2018-03-03T07:12:41.290Z,26.23
2018-03-03T07:15:18.759Z,17.60
2018-03-03T07:17:53.713Z,8.57
2018-03-03T07:20:28.619Z,14.17
2018-03-03T07:23:03.441Z,15.70
2018-03-03T07:25:38.082Z,21.73
2018-03-03T07:28:13.010Z,30.13
2018-03-03T07:30:48.895Z,26.23
2018-03-03T07:33:24.442Z,28.73
2018-03-03T07:35:59.440Z,23.70
2018-03-03T07:38:34.554Z,26.10
2018-03-03T07:41:09.413Z,28.15
2018-03-03T07:43:44.706Z,12.93
2018-03-03T07:46:19.683Z,25.37
2018-03-03T07:48:54.835Z,22.40
2018-03-03T07:51:29.066Z,31.90
2018-03-03T07:54:04.654Z,24.67
2018-03-03T07:56:49.765Z,19.70
2018-03-03T07:59:24.589Z,20.83
2018-03-03T08:01:59.126Z,21.70
2018-03-03T08:04:33.451Z,35.10
2018-03-03T08:07:08.092Z,40.50
2018-03-03T08:09:43.325Z,28.83
2018-03-03T08:12:18.558Z,18.53
2018-03-03T08:14:53.742Z,26.50
2018-03-03T08:17:28.802Z,28.10
2018-03-03T08:20:03.893Z,17.30
2018-03-03T08:22:39.071Z,28.10
2018-03-03T08:25:14.118Z,21.53
2018-03-03T08:27:49.479Z,35.30
2018-03-03T08:30:24.562Z,19.43
2018-03-03T08:32:59.034Z,23.53
2018-03-03T08:35:33.774Z,26.93
2018-03-03T08:38:08.755Z,31.10
2018-03-03T08:40:43.594Z,19.08
2018-03-03T08:43:18.670Z,43.67
2018-03-03T08:45:53.642Z,25.77
2018-03-03T08:48:28.698Z,32.47
2018-03-03T08:51:03.454Z,32.83
2018-03-03T08:53:38.618Z,33.70
2018-03-03T08:56:13.594Z,17.70
2018-03-03T08:58:48.929Z,35.90
2018-03-03T09:01:24.453Z,32.25
2018-03-03T09:03:59.897Z,27.35
2018-03-03T09:06:34.717Z,41.00
2018-03-03T09:09:09.862Z,35.83
2018-03-03T09:11:44.679Z,34.30
2018-03-03T09:14:19.493Z,30.37
2018-03-03T09:16:54.837Z,29.10
2018-03-03T09:19:29.318Z,25.73
2018-03-03T09:22:04.433Z,27.05
2018-03-03T09:24:39.686Z,33.97
2018-03-03T09:27:14.743Z,17.90
2018-03-03T09:29:49.747Z,31.70
2018-03-03T09:32:24.728Z,19.20
2018-03-03T09:34:59.802Z,21.47
2018-03-03T09:37:34.874Z,17.77
2018-03-03T09:40:10.022Z,31.30
2018-03-03T09:42:44.882Z,30.63
2018-03-03T09:45:20.150Z,31.57
2018-03-03T09:47:54.772Z,36.25
2018-03-03T09:50:29.754Z,31.13
2018-03-03T09:53:04.762Z,23.10
2018-03-03T09:55:39.582Z,45.27
2018-03-03T09:58:14.904Z,30.07
2018-03-03T10:00:49.773Z,20.47
2018-03-03T10:03:24.929Z,38.17
2018-03-03T10:06:00.280Z,32.93
2018-03-03T10:08:34.927Z,27.07
2018-03-03T10:11:10.098Z,39.17
2018-03-03T10:13:45.146Z,33.63
2018-03-03T10:16:20.330Z,34.17
2018-03-03T10:18:55.165Z,42.20
2018-03-03T10:21:30.315Z,35.83
2018-03-03T10:24:05.340Z,34.60
2018-03-03T10:26:40.167Z,38.03
2018-03-03T10:29:14.966Z,41.13
2018-03-03T10:31:50.221Z,33.77
2018-03-03T10:34:25.102Z,51.00
2018-03-03T10:37:00.146Z,43.67
2018-03-03T10:39:35.122Z,34.23
2018-03-03T10:42:09.972Z,41.73
2018-03-03T10:44:44.857Z,33.40
2018-03-03T10:47:19.609Z,29.83
2018-03-03T10:49:55.245Z,23.40
2018-03-03T10:52:30.114Z,26.92
2018-03-03T10:55:05.374Z,33.87
2018-03-03T10:57:40.402Z,25.93
2018-03-03T11:00:21.035Z,33.30
2018-03-03T11:02:55.805Z,45.90
2018-03-03T11:05:31.108Z,40.00
2018-03-03T11:08:06.562Z,44.47
2018-03-03T11:10:41.515Z,34.10
2018-03-03T11:13:16.518Z,51.93
2018-03-03T11:15:51.290Z,35.17
2018-03-03T11:18:27.091Z,42.00
2018-03-03T11:21:02.015Z,32.78
2018-03-03T11:23:37.330Z,33.77
2018-03-03T11:26:12.198Z,31.57
2018-03-03T11:28:46.642Z,44.60
2018-03-03T11:31:21.634Z,42.57
2018-03-03T11:33:57.061Z,35.47
2018-03-03T11:36:31.435Z,24.73
2018-03-03T11:39:06.624Z,22.90
2018-03-03T11:41:41.939Z,34.08
2018-03-03T11:44:17.026Z,40.63
2018-03-03T11:46:52.310Z,45.03
2018-03-03T11:49:27.102Z,45.83
2018-03-03T11:52:02.281Z,33.17
2018-03-03T11:54:37.237Z,46.33
2018-03-03T11:57:12.310Z,42.73
2018-03-03T11:59:47.534Z,48.07
2018-03-03T12:02:22.278Z,52.73
2018-03-03T12:04:57.399Z,42.90
2018-03-03T12:07:32.446Z,31.53
2018-03-03T12:10:07.461Z,39.77
2018-03-03T12:12:42.336Z,23.50
2018-03-03T12:15:17.501Z,30.30
2018-03-03T12:17:52.926Z,48.40
2018-03-03T12:20:28.222Z,37.07
2018-03-03T12:23:03.410Z,30.80
2018-03-03T12:25:38.714Z,44.73
2018-03-03T12:28:12.996Z,36.17
2018-03-03T12:30:49.513Z,34.03
2018-03-03T12:33:24.658Z,36.20
2018-03-03T12:36:00.220Z,35.65
2018-03-03T12:38:35.464Z,56.40
2018-03-03T12:41:10.216Z,45.20
2018-03-03T12:43:45.447Z,40.90
2018-03-03T12:46:20.803Z,37.47
2018-03-03T12:48:55.683Z,31.33
2018-03-03T12:51:31.267Z,48.80
2018-03-03T12:54:06.196Z,34.57
2018-03-03T12:56:41.284Z,32.23
2018-03-03T12:59:16.543Z,45.50
2018-03-03T13:01:51.851Z,52.33
2018-03-03T13:04:27.339Z,25.47
2018-03-03T13:07:02.487Z,38.80
2018-03-03T13:09:37.535Z,43.37
2018-03-03T13:12:13.059Z,43.05
2018-03-03T13:14:47.510Z,38.13
2018-03-03T13:17:22.331Z,42.97
2018-03-03T13:19:57.719Z,29.52
2018-03-03T13:22:32.608Z,34.07
2018-03-03T13:25:07.680Z,37.97
2018-03-03T13:27:42.435Z,36.00
2018-03-03T13:30:17.403Z,42.90
2018-03-03T13:32:52.643Z,49.73
2018-03-03T13:35:28.592Z,31.43
2018-03-03T13:38:04.117Z,45.70
2018-03-03T13:40:38.883Z,42.80
2018-03-03T13:43:13.755Z,48.13
2018-03-03T13:45:49.836Z,48.80
2018-03-03T13:48:24.692Z,22.60
2018-03-03T13:50:59.536Z,46.80
2018-03-03T13:53:34.563Z,40.33
2018-03-03T13:56:09.379Z,33.87
2018-03-03T13:58:43.919Z,35.20
2018-03-03T14:01:18.892Z,41.80
2018-03-03T14:03:54.369Z,49.25
2018-03-03T14:06:29.508Z,34.80
2018-03-03T14:09:03.996Z,41.03
2018-03-03T14:11:39.417Z,39.20
2018-03-03T14:14:14.399Z,41.20
2018-03-03T14:16:49.828Z,37.58
2018-03-03T14:19:24.552Z,38.60
2018-03-03T14:21:59.421Z,40.25
2018-03-03T14:24:34.480Z,29.33
2018-03-03T14:27:09.734Z,30.93
2018-03-03T14:29:44.655Z,36.07
2018-03-03T14:32:19.764Z,43.17
2018-03-03T14:34:54.987Z,41.87
2018-03-03T14:37:29.988Z,39.10
2018-03-03T14:40:04.532Z,38.33
2018-03-03T14:42:39.538Z,27.53
2018-03-03T14:45:14.675Z,43.23
2018-03-03T14:47:50.108Z,33.67
2018-03-03T14:50:24.964Z,42.67
2018-03-03T14:53:00.748Z,44.00
2018-03-03T14:55:35.204Z,37.27
2018-03-03T14:58:10.295Z,32.23
2018-03-03T15:00:45.008Z,38.80
2018-03-03T15:03:20.275Z,52.17
2018-03-03T15:05:55.831Z,43.15
2018-03-03T15:08:30.891Z,41.47
2018-03-03T15:11:06.547Z,29.73
2018-03-03T15:13:41.972Z,32.17
2018-03-03T15:16:16.731Z,39.27
2018-03-03T15:18:51.898Z,42.33
2018-03-03T15:21:27.116Z,34.73
2018-03-03T15:24:02.387Z,38.60
2018-03-03T15:26:37.586Z,33.80
2018-03-03T15:29:12.796Z,40.90
2018-03-03T15:31:48.128Z,47.20
2018-03-03T15:34:23.583Z,30.48
2018-03-03T15:36:59.148Z,32.20
2018-03-03T15:39:34.704Z,40.87
2018-03-03T15:42:10.226Z,41.93
2018-03-03T15:44:45.651Z,44.73
2018-03-03T15:47:20.393Z,36.55
2018-03-03T15:49:55.848Z,36.35
2018-03-03T15:52:30.943Z,42.03
2018-03-03T15:55:05.976Z,40.97
2018-03-03T15:57:41.099Z,28.37
2018-03-03T16:00:16.444Z,22.87
2018-03-03T16:02:51.869Z,42.72
2018-03-03T16:05:26.722Z,31.52
2018-03-03T16:08:01.977Z,42.37
2018-03-03T16:10:37.068Z,26.37
2018-03-03T16:13:12.511Z,37.90
2018-03-03T16:15:47.639Z,40.05
2018-03-03T16:18:22.455Z,26.77
2018-03-03T16:20:57.296Z,29.95
2018-03-03T16:23:32.235Z,42.63
2018-03-03T16:26:07.341Z,29.40
2018-03-03T16:28:42.643Z,25.30
2018-03-03T16:31:17.520Z,33.08
2018-03-03T16:33:52.752Z,29.97
2018-03-03T16:36:27.695Z,35.17
2018-03-03T16:39:02.716Z,30.45
2018-03-03T16:41:37.349Z,42.77
2018-03-03T16:44:12.300Z,34.57
2018-03-03T16:46:47.256Z,32.87
2018-03-03T16:49:22.512Z,24.03
2018-03-03T16:51:57.709Z,19.70
2018-03-03T16:54:32.348Z,30.73
2018-03-03T16:57:07.820Z,22.00
2018-03-03T16:59:42.467Z,24.10
2018-03-03T17:02:17.979Z,18.83
2018-03-03T17:04:52.848Z,25.10
2018-03-03T17:07:27.711Z,29.70
2018-03-03T17:10:03.040Z,33.13
2018-03-03T17:12:38.075Z,34.50
2018-03-03T17:15:13.311Z,27.90
2018-03-03T17:17:48.459Z,24.73
2018-03-03T17:20:23.411Z,24.30
2018-03-03T17:22:58.878Z,30.85
2018-03-03T17:25:33.852Z,27.25
2018-03-03T17:28:08.847Z,17.80
2018-03-03T17:30:43.875Z,23.30
2018-03-03T17:33:18.876Z,25.30
2018-03-03T17:35:54.198Z,25.08
2018-03-03T17:38:29.124Z,30.88
2018-03-03T17:41:04.269Z,30.30
2018-03-03T17:43:39.286Z,20.00
2018-03-03T17:46:14.740Z,23.95
2018-03-03T17:48:50.223Z,24.12
2018-03-03T17:51:25.903Z,18.63
2018-03-03T17:54:00.907Z,17.73
2018-03-03T17:56:35.876Z,29.15
2018-03-03T17:59:11.825Z,26.77
2018-03-03T18:01:46.766Z,25.48
2018-03-03T18:04:21.904Z,24.63
2018-03-03T18:06:56.856Z,15.83
2018-03-03T18:09:31.912Z,21.20
2018-03-03T18:12:07.159Z,21.10
2018-03-03T18:14:42.216Z,23.37
2018-03-03T18:17:17.191Z,33.33
2018-03-03T18:19:52.213Z,18.43
2018-03-03T18:22:27.377Z,34.40
2018-03-03T18:25:02.335Z,30.00
2018-03-03T18:27:37.787Z,31.35
2018-03-03T18:30:12.719Z,32.80
2018-03-03T18:32:47.412Z,16.70
2018-03-03T18:35:22.300Z,17.77
2018-03-03T18:37:57.855Z,18.52
2018-03-03T18:40:33.036Z,26.03
2018-03-03T18:43:08.284Z,13.27
2018-03-03T18:45:42.982Z,20.70
2018-03-03T18:48:17.983Z,21.37
2018-03-03T18:50:52.311Z,34.23
2018-03-03T18:53:27.583Z,28.00
2018-03-03T18:56:02.180Z,22.70
2018-03-03T18:58:37.803Z,32.30
2018-03-03T19:01:13.103Z,33.40
2018-03-03T19:03:48.041Z,17.57
2018-03-03T19:06:23.076Z,13.97
2018-03-03T19:08:57.712Z,30.00
2018-03-03T19:11:33.024Z,32.20
2018-03-03T19:14:08.300Z,29.63
2018-03-03T19:16:43.148Z,41.03
2018-03-03T19:19:18.124Z,23.53
2018-03-03T19:21:53.376Z,36.60
2018-03-03T19:24:28.452Z,30.13
2018-03-03T19:27:03.775Z,27.77
2018-03-03T19:29:38.733Z,26.67
2018-03-03T19:32:13.780Z,18.53
2018-03-03T19:34:48.994Z,33.70
2018-03-03T19:37:24.314Z,29.43
2018-03-03T19:39:59.117Z,35.08
2018-03-03T19:42:34.087Z,26.03
2018-03-03T19:45:08.545Z,23.43
2018-03-03T19:47:43.244Z,21.17
2018-03-03T19:50:18.216Z,12.80
2018-03-03T19:52:53.332Z,28.17
2018-03-03T19:55:28.204Z,27.10
2018-03-03T19:58:03.481Z,23.83
2018-03-03T20:00:38.440Z,22.83
2018-03-03T20:03:13.492Z,30.63
2018-03-03T20:05:48.536Z,19.70
2018-03-03T20:08:23.520Z,19.43
2018-03-03T20:10:58.472Z,24.87
2018-03-03T20:13:32.879Z,29.73
2018-03-03T20:16:08.081Z,17.65
2018-03-03T20:18:43.148Z,27.83
2018-03-03T20:21:18.103Z,36.28
2018-03-03T20:23:53.404Z,26.73
2018-03-03T20:26:30.680Z,18.37
2018-03-03T20:29:05.611Z,25.60
2018-03-03T20:31:41.167Z,25.40
2018-03-03T20:34:16.156Z,23.13
2018-03-03T20:36:50.580Z,23.23
2018-03-03T20:39:26.075Z,25.70
2018-03-03T20:42:00.832Z,30.52
2018-03-03T20:44:35.608Z,34.93
2018-03-03T20:47:10.595Z,20.57
2018-03-03T20:49:45.539Z,31.27
2018-03-03T20:52:20.599Z,28.83
2018-03-03T20:54:55.543Z,33.63
2018-03-03T20:57:31.084Z,26.20
2018-03-03T21:00:05.731Z,28.40
2018-03-03T21:02:40.917Z,19.97
2018-03-03T21:05:16.424Z,28.53
2018-03-03T21:07:51.648Z,15.87
2018-03-03T21:10:26.292Z,27.37
2018-03-03T21:13:01.444Z,26.98
2018-03-03T21:15:36.508Z,33.10
2018-03-03T21:18:11.583Z,6.30
2018-03-03T21:20:46.619Z,18.40
2018-03-03T21:23:21.360Z,24.83
2018-03-03T21:25:56.300Z,22.95
2018-03-03T21:28:31.386Z,15.87
2018-03-03T21:31:06.575Z,24.93
2018-03-03T21:33:41.709Z,24.73
2018-03-03T21:36:16.763Z,25.90
2018-03-03T21:38:52.226Z,26.77
2018-03-03T21:41:27.721Z,22.80
2018-03-03T21:44:02.842Z,23.13
2018-03-03T21:46:38.328Z,21.80
2018-03-03T21:49:13.259Z,26.20
2018-03-03T21:51:48.666Z,21.00
2018-03-03T21:54:23.379Z,22.00
2018-03-03T21:56:58.696Z,20.58
2018-03-03T21:59:33.569Z,21.90
2018-03-03T22:02:08.527Z,14.32
2018-03-03T22:04:43.375Z,22.87
2018-03-03T22:07:18.407Z,20.47
2018-03-03T22:09:53.543Z,24.00
2018-03-03T22:12:28.380Z,30.30
2018-03-03T22:15:03.539Z,21.55
2018-03-03T22:17:38.628Z,29.33
2018-03-03T22:20:13.594Z,30.55
2018-03-03T22:22:48.939Z,21.30
2018-03-03T22:25:24.408Z,22.50
2018-03-03T22:27:59.764Z,23.30
2018-03-03T22:30:34.697Z,28.10
2018-03-03T22:33:10.280Z,23.80
2018-03-03T22:35:45.144Z,29.53
2018-03-03T22:38:20.947Z,16.10
2018-03-03T22:40:55.824Z,28.10
2018-03-03T22:43:30.998Z,20.37
2018-03-03T22:46:06.448Z,27.87
2018-03-03T22:48:41.464Z,23.87
2018-03-03T22:51:16.534Z,26.77
2018-03-03T22:53:51.998Z,24.70
2018-03-03T22:56:26.776Z,25.30
2018-03-03T22:59:02.041Z,23.90
2018-03-03T23:01:36.824Z,24.17
2018-03-03T23:04:11.999Z,30.60
2018-03-03T23:06:47.056Z,32.40
2018-03-03T23:09:22.025Z,27.00
2018-03-03T23:11:56.871Z,36.45
2018-03-03T23:14:31.932Z,11.70
2018-03-03T23:17:06.595Z,30.83
2018-03-03T23:19:41.639Z,28.67
2018-03-03T23:22:16.871Z,34.80
2018-03-03T23:24:52.063Z,31.13
2018-03-03T23:27:26.703Z,23.30
2018-03-03T23:30:01.872Z,30.23
2018-03-03T23:32:36.759Z,20.62
2018-03-03T23:35:11.989Z,22.73
2018-03-03T23:37:46.720Z,28.60
2018-03-03T23:40:21.851Z,24.97
2018-03-03T23:42:56.859Z,31.70
2018-03-03T23:45:31.899Z,28.53
2018-03-03T23:48:06.901Z,38.35
2018-03-03T23:50:41.992Z,35.63
2018-03-03T23:53:17.036Z,25.90
2018-03-03T23:55:52.218Z,28.53
2018-03-03T23:58:26.791Z,30.40
